sensor_id;sensor_type;location;lat;lon;timestamp;temperature;humidity
11246;DHT22;59870;50.106;8.580;2023-05-07T00:01:15;20.90;67.10
11246;DHT22;59870;50.106;8.580;2023-05-07T00:03:44;20.80;67.20
11246;DHT22;59870;50.106;8.580;2023-05-07T00:06:12;20.90;67.50
11246;DHT22;59870;50.106;8.580;2023-05-07T00:09:39;20.80;67.10
11246;DHT22;59870;50.106;8.580;2023-05-07T01:39:47;20.10;71.90
11246;DHT22;59870;50.106;8.580;2023-05-07T01:57:41;20.10;73.30
11246;DHT22;59870;50.106;8.580;2023-05-07T02:14:29;20.10;73.90
11246;DHT22;59870;50.106;8.580;2023-05-07T02:16:57;20.00;73.10
11246;DHT22;59870;50.106;8.580;2023-05-07T02:19:26;20.40;73.60
11246;DHT22;59870;50.106;8.580;2023-05-07T02:21:54;20.00;73.90
11246;DHT22;59870;50.106;8.580;2023-05-07T02:24:22;20.40;73.90
11246;DHT22;59870;50.106;8.580;2023-05-07T02:26:49;19.80;73.40
11246;DHT22;59870;50.106;8.580;2023-05-07T02:29:18;20.00;73.40
11246;DHT22;59870;50.106;8.580;2023-05-07T02:31:46;20.00;73.60
11246;DHT22;59870;50.106;8.580;2023-05-07T02:34:18;20.40;74.40
11246;DHT22;59870;50.106;8.580;2023-05-07T02:36:46;19.90;74.50
11246;DHT22;59870;50.106;8.580;2023-05-07T02:39:17;20.30;74.40
11246;DHT22;59870;50.106;8.580;2023-05-07T02:41:45;19.40;73.10
11246;DHT22;59870;50.106;8.580;2023-05-07T02:44:13;20.00;74.30
11246;DHT22;59870;50.106;8.580;2023-05-07T02:46:41;20.30;74.40
11246;DHT22;59870;50.106;8.580;2023-05-07T02:49:12;20.30;74.60
11246;DHT22;59870;50.106;8.580;2023-05-07T02:51:46;19.60;73.90
11246;DHT22;59870;50.106;8.580;2023-05-07T02:54:47;19.30;73.90
11246;DHT22;59870;50.106;8.580;2023-05-07T02:57:39;19.90;74.20
11246;DHT22;59870;50.106;8.580;2023-05-07T03:09:30;19.40;74.20
11246;DHT22;59870;50.106;8.580;2023-05-07T03:12:07;19.90;75.40
11246;DHT22;59870;50.106;8.580;2023-05-07T03:14:45;19.90;75.70
11246;DHT22;59870;50.106;8.580;2023-05-07T03:17:12;19.30;74.80
11246;DHT22;59870;50.106;8.580;2023-05-07T03:19:40;20.10;75.50
11246;DHT22;59870;50.106;8.580;2023-05-07T03:22:09;19.70;75.40
11246;DHT22;59870;50.106;8.580;2023-05-07T03:24:37;20.10;75.80
11246;DHT22;59870;50.106;8.580;2023-05-07T03:27:04;19.70;76.60
11246;DHT22;59870;50.106;8.580;2023-05-07T03:29:32;19.70;76.40
11246;DHT22;59870;50.106;8.580;2023-05-07T03:31:59;19.70;76.50
11246;DHT22;59870;50.106;8.580;2023-05-07T03:34:27;19.70;76.70
11246;DHT22;59870;50.106;8.580;2023-05-07T07:00:20;22.50;70.80
11246;DHT22;59870;50.106;8.580;2023-05-07T07:06:03;23.10;68.70
11246;DHT22;59870;50.106;8.580;2023-05-07T07:12:20;22.80;67.80
11246;DHT22;59870;50.106;8.580;2023-05-07T07:14:47;23.50;66.90
11246;DHT22;59870;50.106;8.580;2023-05-07T07:17:15;23.60;65.70
11246;DHT22;59870;50.106;8.580;2023-05-07T07:19:43;24.00;65.60
11246;DHT22;59870;50.106;8.580;2023-05-07T07:22:10;24.10;65.10
11246;DHT22;59870;50.106;8.580;2023-05-07T07:24:39;24.60;65.40
11246;DHT22;59870;50.106;8.580;2023-05-07T07:27:09;24.50;64.60
11246;DHT22;59870;50.106;8.580;2023-05-07T07:29:36;24.40;64.40
11246;DHT22;59870;50.106;8.580;2023-05-07T07:32:04;24.80;62.40
11246;DHT22;59870;50.106;8.580;2023-05-07T07:34:32;24.70;62.40
11246;DHT22;59870;50.106;8.580;2023-05-07T07:37:01;24.90;62.10
11246;DHT22;59870;50.106;8.580;2023-05-07T07:39:33;25.00;61.90
11246;DHT22;59870;50.106;8.580;2023-05-07T07:42:01;25.70;62.20
11246;DHT22;59870;50.106;8.580;2023-05-07T07:44:29;25.60;61.40
11246;DHT22;59870;50.106;8.580;2023-05-07T07:47:02;25.20;59.90
11246;DHT22;59870;50.106;8.580;2023-05-07T07:49:30;25.20;59.70
11246;DHT22;59870;50.106;8.580;2023-05-07T07:52:01;25.10;59.80
11246;DHT22;59870;50.106;8.580;2023-05-07T07:54:30;25.10;59.20
11246;DHT22;59870;50.106;8.580;2023-05-07T07:56:58;25.00;59.80
11246;DHT22;59870;50.106;8.580;2023-05-07T07:59:27;24.90;59.80
11246;DHT22;59870;50.106;8.580;2023-05-07T08:01:54;24.90;59.50
11246;DHT22;59870;50.106;8.580;2023-05-07T08:04:26;25.40;60.00
11246;DHT22;59870;50.106;8.580;2023-05-07T08:06:55;24.90;59.70
11246;DHT22;59870;50.106;8.580;2023-05-07T08:09:23;25.40;60.30
11246;DHT22;59870;50.106;8.580;2023-05-07T08:11:52;24.90;60.60
11246;DHT22;59870;50.106;8.580;2023-05-07T08:14:20;25.20;60.70
11246;DHT22;59870;50.106;8.580;2023-05-07T08:16:48;24.90;60.00
11246;DHT22;59870;50.106;8.580;2023-05-07T08:19:15;24.90;60.00
11246;DHT22;59870;50.106;8.580;2023-05-07T08:21:44;25.50;60.40
11246;DHT22;59870;50.106;8.580;2023-05-07T08:24:12;25.50;60.40
11246;DHT22;59870;50.106;8.580;2023-05-07T08:26:41;25.00;60.00
11246;DHT22;59870;50.106;8.580;2023-05-07T08:29:10;25.00;59.90
11246;DHT22;59870;50.106;8.580;2023-05-07T08:31:37;25.00;59.50
11246;DHT22;59870;50.106;8.580;2023-05-07T08:34:08;25.00;59.10
11246;DHT22;59870;50.106;8.580;2023-05-07T08:36:40;25.40;59.40
11246;DHT22;59870;50.106;8.580;2023-05-07T08:39:10;24.80;59.90
11246;DHT22;59870;50.106;8.580;2023-05-07T08:41:37;24.70;59.70
11246;DHT22;59870;50.106;8.580;2023-05-07T08:44:06;25.30;59.50
11246;DHT22;59870;50.106;8.580;2023-05-07T08:46:35;25.10;59.00
11246;DHT22;59870;50.106;8.580;2023-05-07T08:49:03;24.70;58.50
11246;DHT22;59870;50.106;8.580;2023-05-07T08:51:30;24.60;58.50
11246;DHT22;59870;50.106;8.580;2023-05-07T08:53:59;25.10;59.40
11246;DHT22;59870;50.106;8.580;2023-05-07T08:56:32;24.60;58.50
11246;DHT22;59870;50.106;8.580;2023-05-07T08:58:59;24.70;59.30
11246;DHT22;59870;50.106;8.580;2023-05-07T09:01:29;24.70;58.90
11246;DHT22;59870;50.106;8.580;2023-05-07T09:03:57;25.30;59.30
11246;DHT22;59870;50.106;8.580;2023-05-07T09:06:27;24.90;58.60
11246;DHT22;59870;50.106;8.580;2023-05-07T09:08:54;24.90;58.80
11246;DHT22;59870;50.106;8.580;2023-05-07T09:11:26;25.50;59.50
11246;DHT22;59870;50.106;8.580;2023-05-07T09:13:57;25.20;58.70
11246;DHT22;59870;50.106;8.580;2023-05-07T09:16:30;25.70;58.00
11246;DHT22;59870;50.106;8.580;2023-05-07T09:18:59;25.30;57.30
11246;DHT22;59870;50.106;8.580;2023-05-07T09:21:28;25.40;57.50
11246;DHT22;59870;50.106;8.580;2023-05-07T09:23:59;25.50;57.10
11246;DHT22;59870;50.106;8.580;2023-05-07T09:26:33;25.70;56.90
11246;DHT22;59870;50.106;8.580;2023-05-07T09:29:03;26.20;57.10
11246;DHT22;59870;50.106;8.580;2023-05-07T09:31:31;26.00;57.30
11246;DHT22;59870;50.106;8.580;2023-05-07T09:33:59;26.20;56.80
11246;DHT22;59870;50.106;8.580;2023-05-07T09:36:31;26.90;56.40
11246;DHT22;59870;50.106;8.580;2023-05-07T09:39:00;26.70;56.00
11246;DHT22;59870;50.106;8.580;2023-05-07T09:41:30;27.00;56.20
11246;DHT22;59870;50.106;8.580;2023-05-07T09:44:09;27.80;54.80
11246;DHT22;59870;50.106;8.580;2023-05-07T09:46:43;27.50;53.60
11246;DHT22;59870;50.106;8.580;2023-05-07T09:49:22;27.60;52.80
11246;DHT22;59870;50.106;8.580;2023-05-07T09:51:55;27.80;53.10
11246;DHT22;59870;50.106;8.580;2023-05-07T09:54:25;27.80;53.10
11246;DHT22;59870;50.106;8.580;2023-05-07T09:56:56;28.00;52.80
11246;DHT22;59870;50.106;8.580;2023-05-07T09:59:27;28.60;52.90
11246;DHT22;59870;50.106;8.580;2023-05-07T10:01:58;28.10;53.20
11246;DHT22;59870;50.106;8.580;2023-05-07T10:04:29;28.10;52.00
11246;DHT22;59870;50.106;8.580;2023-05-07T10:06:58;28.60;52.80
11246;DHT22;59870;50.106;8.580;2023-05-07T10:09:26;28.70;52.30
11246;DHT22;59870;50.106;8.580;2023-05-07T10:11:54;28.20;52.50
11246;DHT22;59870;50.106;8.580;2023-05-07T10:14:23;28.20;52.40
11246;DHT22;59870;50.106;8.580;2023-05-07T10:16:52;28.30;53.60
11246;DHT22;59870;50.106;8.580;2023-05-07T10:19:22;28.40;51.90
11246;DHT22;59870;50.106;8.580;2023-05-07T10:21:59;28.50;52.10
11246;DHT22;59870;50.106;8.580;2023-05-07T10:24:32;28.50;53.80
11246;DHT22;59870;50.106;8.580;2023-05-07T10:27:14;28.50;53.70
11246;DHT22;59870;50.106;8.580;2023-05-07T10:35:02;28.00;51.90
11246;DHT22;59870;50.106;8.580;2023-05-07T10:37:35;27.90;51.90
11246;DHT22;59870;50.106;8.580;2023-05-07T10:40:03;28.50;52.90
11246;DHT22;59870;50.106;8.580;2023-05-07T10:42:32;27.90;52.50
11246;DHT22;59870;50.106;8.580;2023-05-07T10:45:12;27.80;52.50
11246;DHT22;59870;50.106;8.580;2023-05-07T10:48:13;27.80;53.50
11246;DHT22;59870;50.106;8.580;2023-05-07T10:51:20;27.80;53.00
11246;DHT22;59870;50.106;8.580;2023-05-07T10:56:52;27.90;52.80
11246;DHT22;59870;50.106;8.580;2023-05-07T10:59:31;27.90;51.80
11246;DHT22;59870;50.106;8.580;2023-05-07T11:02:07;27.80;51.80
11246;DHT22;59870;50.106;8.580;2023-05-07T11:05:20;27.80;52.30
11246;DHT22;59870;50.106;8.580;2023-05-07T11:08:09;27.70;53.00
11246;DHT22;59870;50.106;8.580;2023-05-07T11:11:04;27.70;53.00
11246;DHT22;59870;50.106;8.580;2023-05-07T11:13:49;27.70;53.30
11246;DHT22;59870;50.106;8.580;2023-05-07T11:16:25;27.70;52.80
11246;DHT22;59870;50.106;8.580;2023-05-07T11:19:03;27.70;52.50
11246;DHT22;59870;50.106;8.580;2023-05-07T11:21:39;28.40;53.00
11246;DHT22;59870;50.106;8.580;2023-05-07T11:24:13;27.80;52.30
11246;DHT22;59870;50.106;8.580;2023-05-07T11:26:50;27.80;53.50
11246;DHT22;59870;50.106;8.580;2023-05-07T11:29:21;27.70;52.90
11246;DHT22;59870;50.106;8.580;2023-05-07T11:31:55;27.80;52.80
11246;DHT22;59870;50.106;8.580;2023-05-07T11:34:26;27.90;53.70
11246;DHT22;59870;50.106;8.580;2023-05-07T11:36:58;27.90;52.30
11246;DHT22;59870;50.106;8.580;2023-05-07T11:40:05;27.90;52.20
11246;DHT22;59870;50.106;8.580;2023-05-07T11:42:35;27.90;52.90
11246;DHT22;59870;50.106;8.580;2023-05-07T11:45:07;27.90;52.60
11246;DHT22;59870;50.106;8.580;2023-05-07T11:47:35;27.80;51.50
11246;DHT22;59870;50.106;8.580;2023-05-07T11:50:07;27.80;51.70
11246;DHT22;59870;50.106;8.580;2023-05-07T11:52:35;27.80;52.40
11246;DHT22;59870;50.106;8.580;2023-05-07T11:55:03;28.00;52.20
11246;DHT22;59870;50.106;8.580;2023-05-07T11:57:33;27.80;53.40
11246;DHT22;59870;50.106;8.580;2023-05-07T12:00:01;27.90;50.20
11246;DHT22;59870;50.106;8.580;2023-05-07T12:02:38;28.00;50.00
11246;DHT22;59870;50.106;8.580;2023-05-07T12:05:06;28.10;48.70
11246;DHT22;59870;50.106;8.580;2023-05-07T12:07:34;28.10;50.30
11246;DHT22;59870;50.106;8.580;2023-05-07T12:10:06;28.20;51.50
11246;DHT22;59870;50.106;8.580;2023-05-07T12:12:38;28.40;51.40
11246;DHT22;59870;50.106;8.580;2023-05-07T12:15:07;28.40;50.10
11246;DHT22;59870;50.106;8.580;2023-05-07T12:17:35;28.50;49.70
11246;DHT22;59870;50.106;8.580;2023-05-07T12:20:03;29.20;48.40
11246;DHT22;59870;50.106;8.580;2023-05-07T12:22:32;28.70;47.80
11246;DHT22;59870;50.106;8.580;2023-05-07T12:25:00;28.80;46.30
11246;DHT22;59870;50.106;8.580;2023-05-07T12:27:27;28.80;45.80
11246;DHT22;59870;50.106;8.580;2023-05-07T12:29:54;28.80;44.90
11246;DHT22;59870;50.106;8.580;2023-05-07T12:32:24;28.80;46.00
11246;DHT22;59870;50.106;8.580;2023-05-07T12:34:52;28.70;46.30
11246;DHT22;59870;50.106;8.580;2023-05-07T12:37:25;28.60;46.60
11246;DHT22;59870;50.106;8.580;2023-05-07T12:40:09;28.50;45.70
11246;DHT22;59870;50.106;8.580;2023-05-07T12:42:40;28.50;45.20
11246;DHT22;59870;50.106;8.580;2023-05-07T12:45:12;29.10;45.50
11246;DHT22;59870;50.106;8.580;2023-05-07T12:47:44;28.50;44.60
11246;DHT22;59870;50.106;8.580;2023-05-07T12:50:13;28.60;45.50
11246;DHT22;59870;50.106;8.580;2023-05-07T12:52:52;28.70;44.90
11246;DHT22;59870;50.106;8.580;2023-05-07T12:55:19;29.00;45.50
11246;DHT22;59870;50.106;8.580;2023-05-07T12:57:50;28.70;45.60
11246;DHT22;59870;50.106;8.580;2023-05-07T13:00:36;28.80;46.40
11246;DHT22;59870;50.106;8.580;2023-05-07T13:03:04;28.80;45.30
11246;DHT22;59870;50.106;8.580;2023-05-07T13:05:32;28.90;45.50
11246;DHT22;59870;50.106;8.580;2023-05-07T13:07:59;29.00;44.40
11246;DHT22;59870;50.106;8.580;2023-05-07T13:10:27;28.90;43.80
11246;DHT22;59870;50.106;8.580;2023-05-07T13:12:55;28.90;43.20
11246;DHT22;59870;50.106;8.580;2023-05-07T13:15:23;28.90;43.70
11246;DHT22;59870;50.106;8.580;2023-05-07T13:17:51;29.40;43.10
11246;DHT22;59870;50.106;8.580;2023-05-07T13:20:21;29.00;43.30
11246;DHT22;59870;50.106;8.580;2023-05-07T13:22:48;28.90;42.60
11246;DHT22;59870;50.106;8.580;2023-05-07T13:25:15;29.40;43.40
11246;DHT22;59870;50.106;8.580;2023-05-07T13:27:43;28.90;43.60
11246;DHT22;59870;50.106;8.580;2023-05-07T13:30:13;28.90;44.60
11246;DHT22;59870;50.106;8.580;2023-05-07T13:32:42;29.00;44.90
11246;DHT22;59870;50.106;8.580;2023-05-07T13:35:10;29.00;46.20
11246;DHT22;59870;50.106;8.580;2023-05-07T13:37:37;29.00;47.10
11246;DHT22;59870;50.106;8.580;2023-05-07T13:40:05;29.00;46.80
11246;DHT22;59870;50.106;8.580;2023-05-07T13:42:33;29.00;47.50
11246;DHT22;59870;50.106;8.580;2023-05-07T13:45:01;29.00;48.20
11246;DHT22;59870;50.106;8.580;2023-05-07T13:47:30;29.00;47.90
11246;DHT22;59870;50.106;8.580;2023-05-07T13:49:58;29.30;48.90
11246;DHT22;59870;50.106;8.580;2023-05-07T13:52:26;28.90;48.20
11246;DHT22;59870;50.106;8.580;2023-05-07T13:54:53;29.30;48.20
11246;DHT22;59870;50.106;8.580;2023-05-07T13:57:22;28.90;48.40
11246;DHT22;59870;50.106;8.580;2023-05-07T13:59:49;29.40;48.50
11246;DHT22;59870;50.106;8.580;2023-05-07T14:02:17;28.80;47.30
11246;DHT22;59870;50.106;8.580;2023-05-07T14:04:44;29.10;47.80
11246;DHT22;59870;50.106;8.580;2023-05-07T14:07:12;28.80;47.90
11246;DHT22;59870;50.106;8.580;2023-05-07T14:09:39;29.40;48.60
11246;DHT22;59870;50.106;8.580;2023-05-07T14:12:07;28.80;48.20
11246;DHT22;59870;50.106;8.580;2023-05-07T14:14:34;29.30;49.10
11246;DHT22;59870;50.106;8.580;2023-05-07T14:17:02;28.80;48.30
11246;DHT22;59870;50.106;8.580;2023-05-07T14:19:29;28.70;48.00
11246;DHT22;59870;50.106;8.580;2023-05-07T14:22:00;28.70;48.10
11246;DHT22;59870;50.106;8.580;2023-05-07T14:24:27;28.70;48.10
11246;DHT22;59870;50.106;8.580;2023-05-07T14:27:04;29.00;47.80
11246;DHT22;59870;50.106;8.580;2023-05-07T14:29:33;28.60;48.00
11246;DHT22;59870;50.106;8.580;2023-05-07T14:32:03;29.00;48.00
11246;DHT22;59870;50.106;8.580;2023-05-07T14:34:31;28.50;47.30
11246;DHT22;59870;50.106;8.580;2023-05-07T14:37:00;28.40;47.90
11246;DHT22;59870;50.106;8.580;2023-05-07T14:39:27;28.30;48.20
11246;DHT22;59870;50.106;8.580;2023-05-07T14:41:55;28.30;48.10
11246;DHT22;59870;50.106;8.580;2023-05-07T14:44:23;28.70;48.30
11246;DHT22;59870;50.106;8.580;2023-05-07T14:46:51;28.30;47.80
11246;DHT22;59870;50.106;8.580;2023-05-07T14:49:19;28.30;48.80
11246;DHT22;59870;50.106;8.580;2023-05-07T14:51:47;28.30;48.90
11246;DHT22;59870;50.106;8.580;2023-05-07T14:54:15;28.40;47.90
11246;DHT22;59870;50.106;8.580;2023-05-07T14:56:42;28.80;47.80
11246;DHT22;59870;50.106;8.580;2023-05-07T14:59:10;28.60;47.70
11246;DHT22;59870;50.106;8.580;2023-05-07T15:01:38;28.40;47.40
11246;DHT22;59870;50.106;8.580;2023-05-07T15:04:08;28.40;47.40
11246;DHT22;59870;50.106;8.580;2023-05-07T15:06:35;28.40;46.70
11246;DHT22;59870;50.106;8.580;2023-05-07T15:09:03;28.40;46.70
11246;DHT22;59870;50.106;8.580;2023-05-07T15:11:30;28.40;46.30
11246;DHT22;59870;50.106;8.580;2023-05-07T15:13:58;28.30;46.40
11246;DHT22;59870;50.106;8.580;2023-05-07T15:16:26;28.20;46.90
11246;DHT22;59870;50.106;8.580;2023-05-07T15:18:55;28.20;46.80
11246;DHT22;59870;50.106;8.580;2023-05-07T15:21:23;28.20;46.70
11246;DHT22;59870;50.106;8.580;2023-05-07T15:23:50;28.20;47.10
11246;DHT22;59870;50.106;8.580;2023-05-07T15:26:18;28.70;46.80
11246;DHT22;59870;50.106;8.580;2023-05-07T15:28:50;28.10;46.70
11246;DHT22;59870;50.106;8.580;2023-05-07T15:31:25;28.30;46.40
11246;DHT22;59870;50.106;8.580;2023-05-07T15:33:53;27.90;45.80
11246;DHT22;59870;50.106;8.580;2023-05-07T15:36:21;27.80;45.40
11246;DHT22;59870;50.106;8.580;2023-05-07T15:38:50;27.80;46.40
11246;DHT22;59870;50.106;8.580;2023-05-07T15:41:18;28.10;46.50
11246;DHT22;59870;50.106;8.580;2023-05-07T15:43:49;28.10;47.10
11246;DHT22;59870;50.106;8.580;2023-05-07T15:46:19;27.50;47.20
11246;DHT22;59870;50.106;8.580;2023-05-07T15:48:53;27.90;47.40
11246;DHT22;59870;50.106;8.580;2023-05-07T15:51:22;27.40;47.50
11246;DHT22;59870;50.106;8.580;2023-05-07T15:53:52;27.40;47.50
11246;DHT22;59870;50.106;8.580;2023-05-07T15:56:20;27.60;47.60
11246;DHT22;59870;50.106;8.580;2023-05-07T15:58:47;27.40;47.70
11246;DHT22;59870;50.106;8.580;2023-05-07T16:01:19;27.70;48.30
11246;DHT22;59870;50.106;8.580;2023-05-07T16:04:13;27.30;46.90
11246;DHT22;59870;50.106;8.580;2023-05-07T16:06:40;27.20;47.60
11246;DHT22;59870;50.106;8.580;2023-05-07T16:09:08;27.20;47.40
11246;DHT22;59870;50.106;8.580;2023-05-07T16:11:36;27.70;48.10
11246;DHT22;59870;50.106;8.580;2023-05-07T16:14:03;27.10;47.70
11246;DHT22;59870;50.106;8.580;2023-05-07T16:16:35;27.10;47.50
11246;DHT22;59870;50.106;8.580;2023-05-07T16:19:04;27.10;47.60
11246;DHT22;59870;50.106;8.580;2023-05-07T16:21:31;27.70;48.10
11246;DHT22;59870;50.106;8.580;2023-05-07T16:23:59;27.00;48.00
11246;DHT22;59870;50.106;8.580;2023-05-07T16:26:26;27.50;48.10
11246;DHT22;59870;50.106;8.580;2023-05-07T16:28:54;27.00;47.70
11246;DHT22;59870;50.106;8.580;2023-05-07T16:31:21;26.90;47.90
11246;DHT22;59870;50.106;8.580;2023-05-07T16:33:49;26.90;48.00
11246;DHT22;59870;50.106;8.580;2023-05-07T16:36:16;26.90;47.90
11246;DHT22;59870;50.106;8.580;2023-05-07T16:38:43;27.30;48.30
11246;DHT22;59870;50.106;8.580;2023-05-07T16:41:11;26.90;48.10
11246;DHT22;59870;50.106;8.580;2023-05-07T16:43:39;26.90;48.20
11246;DHT22;59870;50.106;8.580;2023-05-07T16:46:07;26.90;48.30
11246;DHT22;59870;50.106;8.580;2023-05-07T16:48:34;27.40;48.70
11246;DHT22;59870;50.106;8.580;2023-05-07T16:51:02;26.90;49.30
11246;DHT22;59870;50.106;8.580;2023-05-07T16:53:30;26.80;48.70
11246;DHT22;59870;50.106;8.580;2023-05-07T16:55:57;26.80;52.50
11246;DHT22;59870;50.106;8.580;2023-05-07T16:58:25;26.90;55.00
11246;DHT22;59870;50.106;8.580;2023-05-07T17:00:54;26.60;55.80
11246;DHT22;59870;50.106;8.580;2023-05-07T17:03:21;26.40;56.80
11246;DHT22;59870;50.106;8.580;2023-05-07T17:05:50;26.40;57.70
11246;DHT22;59870;50.106;8.580;2023-05-07T17:08:18;26.30;58.50
11246;DHT22;59870;50.106;8.580;2023-05-07T17:10:45;26.70;59.50
11246;DHT22;59870;50.106;8.580;2023-05-07T17:13:13;26.70;60.20
11246;DHT22;59870;50.106;8.580;2023-05-07T17:15:42;26.60;60.50
11246;DHT22;59870;50.106;8.580;2023-05-07T17:18:11;25.90;60.20
11246;DHT22;59870;50.106;8.580;2023-05-07T17:20:38;25.80;61.20
11246;DHT22;59870;50.106;8.580;2023-05-07T17:23:06;25.70;61.50
11246;DHT22;59870;50.106;8.580;2023-05-07T17:25:36;26.20;62.60
11246;DHT22;59870;50.106;8.580;2023-05-07T17:28:04;25.80;62.80
11246;DHT22;59870;50.106;8.580;2023-05-07T17:30:32;25.40;62.20
11246;DHT22;59870;50.106;8.580;2023-05-07T17:32:59;25.60;63.00
11246;DHT22;59870;50.106;8.580;2023-05-07T17:35:45;25.80;63.70
11246;DHT22;59870;50.106;8.580;2023-05-07T17:38:39;25.60;64.30
11246;DHT22;59870;50.106;8.580;2023-05-07T17:41:11;24.90;62.20
11246;DHT22;59870;50.106;8.580;2023-05-07T17:43:39;25.40;65.00
11246;DHT22;59870;50.106;8.580;2023-05-07T17:46:08;25.20;65.30
11246;DHT22;59870;50.106;8.580;2023-05-07T17:48:36;25.20;66.20
11246;DHT22;59870;50.106;8.580;2023-05-07T17:51:04;24.50;66.00
11246;DHT22;59870;50.106;8.580;2023-05-07T17:53:31;24.40;65.80
11246;DHT22;59870;50.106;8.580;2023-05-07T17:56:01;24.40;66.60
11246;DHT22;59870;50.106;8.580;2023-05-07T17:58:29;24.40;66.70
11246;DHT22;59870;50.106;8.580;2023-05-07T18:00:57;24.20;66.80
11246;DHT22;59870;50.106;8.580;2023-05-07T18:03:26;24.30;67.40
11246;DHT22;59870;50.106;8.580;2023-05-07T18:05:55;24.10;67.70
11246;DHT22;59870;50.106;8.580;2023-05-07T18:08:22;24.60;69.40
11246;DHT22;59870;50.106;8.580;2023-05-07T18:10:50;23.80;70.90
11246;DHT22;59870;50.106;8.580;2023-05-07T18:13:17;23.70;71.00
11246;DHT22;59870;50.106;8.580;2023-05-07T18:15:45;24.20;74.40
11246;DHT22;59870;50.106;8.580;2023-05-07T18:18:15;23.70;75.80
11246;DHT22;59870;50.106;8.580;2023-05-07T18:20:48;23.40;75.80
11246;DHT22;59870;50.106;8.580;2023-05-07T18:23:15;24.00;77.80
11246;DHT22;59870;50.106;8.580;2023-05-07T18:25:45;23.30;78.40
11246;DHT22;59870;50.106;8.580;2023-05-07T18:28:13;23.40;78.20
11246;DHT22;59870;50.106;8.580;2023-05-07T18:30:41;23.10;77.80
11246;DHT22;59870;50.106;8.580;2023-05-07T18:36:30;23.00;76.50
11246;DHT22;59870;50.106;8.580;2023-05-07T18:38:57;23.40;77.90
11246;DHT22;59870;50.106;8.580;2023-05-07T18:41:26;23.00;78.00
11246;DHT22;59870;50.106;8.580;2023-05-07T18:43:54;23.30;78.70
11246;DHT22;59870;50.106;8.580;2023-05-07T18:46:22;23.20;80.20
11246;DHT22;59870;50.106;8.580;2023-05-07T18:48:49;22.90;79.40
11246;DHT22;59870;50.106;8.580;2023-05-07T18:51:17;23.20;79.40
11246;DHT22;59870;50.106;8.580;2023-05-07T18:53:44;22.70;79.60
11246;DHT22;59870;50.106;8.580;2023-05-07T18:56:13;22.70;79.70
11246;DHT22;59870;50.106;8.580;2023-05-07T18:58:40;23.10;80.40
11246;DHT22;59870;50.106;8.580;2023-05-07T19:01:07;23.10;81.40
11246;DHT22;59870;50.106;8.580;2023-05-07T19:03:37;22.60;80.20
11246;DHT22;59870;50.106;8.580;2023-05-07T19:06:04;22.60;80.80
11246;DHT22;59870;50.106;8.580;2023-05-07T19:08:32;22.60;81.00
11246;DHT22;59870;50.106;8.580;2023-05-07T19:11:00;22.60;81.40
11246;DHT22;59870;50.106;8.580;2023-05-07T19:13:28;22.60;81.80
11246;DHT22;59870;50.106;8.580;2023-05-07T19:15:55;22.90;82.20
11246;DHT22;59870;50.106;8.580;2023-05-07T19:18:23;22.60;82.50
11246;DHT22;59870;50.106;8.580;2023-05-07T19:20:50;23.00;83.20
11246;DHT22;59870;50.106;8.580;2023-05-07T19:23:21;22.50;83.50
11246;DHT22;59870;50.106;8.580;2023-05-07T19:25:49;22.90;83.70
11246;DHT22;59870;50.106;8.580;2023-05-07T19:28:17;22.50;83.60
11246;DHT22;59870;50.106;8.580;2023-05-07T19:30:44;22.40;83.90
11246;DHT22;59870;50.106;8.580;2023-05-07T19:33:11;22.60;83.80
11246;DHT22;59870;50.106;8.580;2023-05-07T19:35:40;22.40;84.30
11246;DHT22;59870;50.106;8.580;2023-05-07T19:38:11;22.40;84.40
11246;DHT22;59870;50.106;8.580;2023-05-07T19:40:41;22.70;85.20
11246;DHT22;59870;50.106;8.580;2023-05-07T19:43:11;22.30;84.80
11246;DHT22;59870;50.106;8.580;2023-05-07T19:45:39;22.30;85.50
11246;DHT22;59870;50.106;8.580;2023-05-07T19:48:09;22.30;85.40
11246;DHT22;59870;50.106;8.580;2023-05-07T19:50:37;22.70;86.80
11246;DHT22;59870;50.106;8.580;2023-05-07T19:53:05;22.30;85.80
11246;DHT22;59870;50.106;8.580;2023-05-07T19:55:33;22.20;86.10
11246;DHT22;59870;50.106;8.580;2023-05-07T19:58:00;22.20;86.60
11246;DHT22;59870;50.106;8.580;2023-05-07T20:00:28;22.30;86.30
11246;DHT22;59870;50.106;8.580;2023-05-07T20:02:58;22.60;87.30
11246;DHT22;59870;50.106;8.580;2023-05-07T20:05:26;22.20;86.70
11246;DHT22;59870;50.106;8.580;2023-05-07T20:07:55;22.20;87.60
11246;DHT22;59870;50.106;8.580;2023-05-07T20:10:22;22.30;87.80
11246;DHT22;59870;50.106;8.580;2023-05-07T20:12:50;22.40;88.20
